Time;durP1;ratioP1;P1;durP2;ratioP2;P2;SDS_P1;SDS_P2;PMS_P1;PMS_P2;Temp;Humidity;BMP_temperature;BMP_pressure;BME280_temperature;BME280_humidity;BME280_pressure;Samples;Min_cycle;Max_cycle;Signal;HPM_P1;HPM_P2
2021/12/07 00:01:48;;;;;;;22.88;3.72;;;5.10;99.90;;;;;;4913008;29;20024;-70
2021/12/07 00:04:14;;;;;;;25.27;3.70;;;5.20;99.90;;;;;;4911470;29;20467;-69
2021/12/07 00:06:41;;;;;;;32.05;4.18;;;5.20;99.90;;;;;;4914805;29;20028;-70
2021/12/07 00:09:09;;;;;;;22.58;3.70;;;5.20;99.90;;;;;;4911309;29;20032;-71
2021/12/07 00:11:36;;;;;;;23.92;4.32;;;5.30;99.90;;;;;;4909099;29;20036;-70
2021/12/07 00:14:11;;;;;;;20.67;3.20;;;5.30;99.90;;;;;;4912501;29;20039;-70
2021/12/07 00:16:38;;;;;;;13.13;2.97;;;5.20;99.90;;;;;;4917359;29;20059;-72
2021/12/07 00:19:04;;;;;;;23.50;3.63;;;5.30;99.90;;;;;;4910765;29;20025;-70
2021/12/07 00:21:29;;;;;;;22.77;4.60;;;5.30;99.90;;;;;;4916089;29;20040;-70
2021/12/07 00:23:55;;;;;;;31.83;5.78;;;5.20;99.90;;;;;;4912886;29;20447;-70
2021/12/07 00:26:21;;;;;;;34.85;7.95;;;5.30;99.90;;;;;;4912600;29;20039;-70
2021/12/07 00:28:49;;;;;;;;;;;5.20;99.90;;;;;;4917468;29;20088;-69
2021/12/07 00:31:24;;;;;;;32.10;6.50;;;5.10;99.90;;;;;;4915221;29;20395;-70
2021/12/07 00:34:05;;;;;;;25.48;5.65;;;5.10;99.90;;;;;;4914279;29;20040;-70
2021/12/07 00:36:31;;;;;;;26.55;3.78;;;5.00;99.90;;;;;;4909142;29;20032;-70
2021/12/07 00:38:57;;;;;;;29.63;4.57;;;5.00;99.90;;;;;;4913024;29;20609;-70
2021/12/07 00:41:23;;;;;;;23.33;4.45;;;5.00;99.90;;;;;;4916235;29;20024;-70
2021/12/07 00:43:49;;;;;;;22.92;3.10;;;5.00;99.90;;;;;;4909607;29;20115;-69
2021/12/07 00:46:15;;;;;;;20.67;3.25;;;5.00;99.90;;;;;;4911874;29;20407;-70
2021/12/07 00:48:41;;;;;;;21.83;3.92;;;5.00;99.90;;;;;;4915638;29;20040;-70
2021/12/07 00:51:07;;;;;;;23.50;3.60;;;5.10;99.90;;;;;;4909467;29;20043;-70
2021/12/07 00:53:33;;;;;;;17.90;3.42;;;5.10;99.90;;;;;;4915597;29;20794;-70
2021/12/07 00:56:03;;;;;;;22.15;3.33;;;5.10;99.90;;;;;;4913123;29;20071;-69
2021/12/07 00:58:30;;;;;;;24.40;3.88;;;5.30;99.90;;;;;;4914248;29;20039;-68
2021/12/07 01:01:05;;;;;;;29.15;3.40;;;5.30;99.90;;;;;;4909030;29;20043;-69
2021/12/07 01:03:31;;;;;;;23.83;3.25;;;5.20;99.90;;;;;;4915718;29;20426;-70
2021/12/07 01:06:13;;;;;;;20.65;3.50;;;5.20;99.90;;;;;;4914086;29;20024;-69
2021/12/07 01:09:02;;;;;;;22.77;3.60;;;5.20;99.90;;;;;;4911925;29;20028;-70
2021/12/07 01:25:18;;;;;;;17.20;2.78;;;5.00;99.90;;;;;;4910483;29;20561;-69
2021/12/07 01:27:47;;;;;;;21.73;2.63;;;5.00;99.90;;;;;;4909670;29;20031;-69
2021/12/07 01:30:21;;;;;;;20.00;3.33;;;5.00;99.90;;;;;;4911916;29;20149;-69
2021/12/07 01:38:02;;;;;;;22.45;2.80;;;4.80;99.90;;;;;;4912963;29;20474;-69
2021/12/07 02:01:54;;;;;;;23.58;3.28;;;4.60;99.90;;;;;;4913226;29;20035;-70
2021/12/07 02:04:20;;;;;;;21.65;3.28;;;4.60;99.90;;;;;;4909422;29;20131;-71
2021/12/07 02:06:46;;;;;;;22.50;3.45;;;4.50;99.90;;;;;;4907588;29;20036;-69
2021/12/07 02:09:12;;;;;;;19.00;3.30;;;4.40;99.90;;;;;;4912840;29;20036;-70
2021/12/07 02:11:47;;;;;;;25.58;4.00;;;4.40;99.90;;;;;;4908862;29;20036;-69
2021/12/07 02:14:17;;;;;;;25.23;4.57;;;4.30;99.90;;;;;;4915151;29;20118;-70
2021/12/07 02:16:52;;;;;;;25.13;3.97;;;4.30;99.90;;;;;;4916291;29;20119;-70
2021/12/07 02:19:19;;;;;;;27.70;3.67;;;4.20;99.90;;;;;;4909036;29;20021;-70
2021/12/07 02:21:44;;;;;;;;;;;4.30;99.90;;;;;;4914674;29;20482;-69
2021/12/07 02:24:10;;;;;;;24.05;4.05;;;4.30;99.90;;;;;;4910829;29;19918;-71
2021/12/07 02:26:36;;;;;;;31.55;3.65;;;4.40;99.90;;;;;;4907105;29;20029;-69
2021/12/07 02:29:04;;;;;;;19.40;3.58;;;4.30;99.90;;;;;;4904903;29;20491;-70
2021/12/07 02:31:31;;;;;;;30.90;4.60;;;4.30;99.90;;;;;;4908457;29;20044;-71
2021/12/07 02:33:57;;;;;;;25.48;3.92;;;4.40;99.90;;;;;;4913915;29;20456;-70
2021/12/07 02:36:23;;;;;;;24.15;3.88;;;4.50;99.90;;;;;;4914245;29;20032;-70
2021/12/07 02:38:49;;;;;;;21.23;3.60;;;4.50;99.90;;;;;;4912605;29;20035;-70
2021/12/07 02:41:16;;;;;;;24.73;3.45;;;4.50;99.90;;;;;;4902325;29;20428;-70
2021/12/07 02:43:42;;;;;;;26.73;3.35;;;4.40;99.90;;;;;;4911766;29;20084;-70
2021/12/07 02:46:09;;;;;;;24.65;3.40;;;4.40;99.90;;;;;;4912867;29;20039;-70
2021/12/07 02:48:34;;;;;;;22.67;3.50;;;4.40;99.90;;;;;;4913281;29;20060;-70
2021/12/07 02:51:00;;;;;;;18.80;2.70;;;4.40;99.90;;;;;;4912062;29;20608;-70
2021/12/07 02:53:28;;;;;;;25.23;3.40;;;4.40;99.90;;;;;;4912514;29;20517;-69
2021/12/07 02:55:55;;;;;;;26.38;3.08;;;4.40;99.90;;;;;;4905996;29;20522;-71
2021/12/07 02:58:21;;;;;;;18.20;3.40;;;4.40;99.90;;;;;;4908243;29;20080;-69
2021/12/07 03:00:57;;;;;;;22.30;3.20;;;4.50;99.90;;;;;;4907235;29;20028;-70
2021/12/07 03:03:23;;;;;;;23.57;3.13;;;4.50;99.90;;;;;;4913173;29;20055;-70
2021/12/07 03:06:05;;;;;;;26.92;3.38;;;4.60;99.90;;;;;;4914015;29;20708;-69
2021/12/07 03:27:39;;;;;;;18.63;2.67;;;4.80;99.90;;;;;;4909648;29;20056;-67
2021/12/07 03:30:07;;;;;;;23.05;2.97;;;4.90;99.90;;;;;;4911405;29;20052;-71
2021/12/07 03:32:33;;;;;;;20.17;2.95;;;4.80;99.90;;;;;;4909504;29;20111;-69
2021/12/07 03:34:58;;;;;;;19.60;2.88;;;4.90;99.90;;;;;;4904617;29;20112;-71
2021/12/07 03:37:24;;;;;;;14.93;2.90;;;4.90;99.90;;;;;;4908084;29;20404;-71
2021/12/07 03:39:50;;;;;;;23.25;3.17;;;4.90;99.90;;;;;;4909806;29;20068;-70
2021/12/07 03:42:16;;;;;;;17.00;2.80;;;5.00;99.90;;;;;;4908335;29;20483;-69
2021/12/07 03:44:42;;;;;;;24.88;2.85;;;5.00;99.90;;;;;;4910012;29;20028;-71
2021/12/07 03:47:08;;;;;;;28.63;2.78;;;5.10;99.90;;;;;;4913237;29;20483;-71
2021/12/07 03:49:33;;;;;;;;;;;5.10;99.90;;;;;;4914508;29;20869;-69
2021/12/07 03:51:59;;;;;;;21.58;3.00;;;5.00;99.90;;;;;;4911105;29;19915;-70
2021/12/07 03:54:24;;;;;;;26.17;4.22;;;5.00;99.90;;;;;;4908688;29;20024;-69
2021/12/07 03:56:50;;;;;;;21.58;4.93;;;4.90;99.90;;;;;;4910277;29;20763;-72
2021/12/07 03:59:16;;;;;;;22.60;5.43;;;4.60;99.90;;;;;;4913307;29;20420;-70
2021/12/07 04:01:42;;;;;;;25.23;5.47;;;4.60;99.90;;;;;;4911114;29;20028;-68
2021/12/07 04:04:08;;;;;;;19.35;4.50;;;4.60;99.90;;;;;;4914364;29;20020;-69
2021/12/07 04:06:34;;;;;;;20.77;4.38;;;4.60;99.90;;;;;;4908575;29;20423;-70
2021/12/07 04:08:59;;;;;;;19.17;4.10;;;4.50;99.90;;;;;;4913104;29;20110;-69
2021/12/07 04:11:25;;;;;;;28.80;4.43;;;4.50;99.90;;;;;;4911982;29;20035;-69
2021/12/07 04:13:51;;;;;;;34.97;4.43;;;4.50;99.90;;;;;;4913897;29;20033;-69
2021/12/07 04:16:19;;;;;;;24.33;4.20;;;4.40;99.90;;;;;;4913870;29;20119;-70
2021/12/07 04:18:45;;;;;;;23.67;4.28;;;4.30;99.90;;;;;;4910804;29;20096;-69
2021/12/07 04:21:10;;;;;;;23.50;3.90;;;4.10;99.90;;;;;;4914048;29;20032;-68
2021/12/07 04:23:38;;;;;;;25.98;4.00;;;4.20;99.90;;;;;;4915714;29;20520;-69
2021/12/07 04:26:08;;;;;;;22.42;3.88;;;4.30;99.90;;;;;;4912684;29;20190;-70
2021/12/07 04:28:34;;;;;;;22.80;3.70;;;4.30;99.90;;;;;;4914014;29;20082;-70
2021/12/07 04:31:00;;;;;;;22.42;3.22;;;4.40;99.90;;;;;;4915241;29;20080;-70
2021/12/07 04:33:29;;;;;;;20.27;2.88;;;4.40;99.90;;;;;;4912418;29;20033;-69
2021/12/07 04:35:56;;;;;;;21.85;2.60;;;4.30;99.90;;;;;;4910710;29;20079;-68
2021/12/07 04:38:21;;;;;;;21.00;3.30;;;4.40;99.90;;;;;;4920137;29;20043;-69
2021/12/07 04:40:47;;;;;;;20.08;2.65;;;4.40;99.90;;;;;;4915633;29;20453;-69
2021/12/07 04:43:13;;;;;;;19.70;2.63;;;4.40;99.90;;;;;;4912945;29;20028;-69
2021/12/07 04:58:56;;;;;;;15.10;2.20;;;4.70;99.90;;;;;;4910232;29;20031;-71
2021/12/07 05:01:23;;;;;;;22.63;2.58;;;4.80;99.90;;;;;;4910714;29;20036;-70
2021/12/07 05:03:51;;;;;;;20.15;2.20;;;4.90;99.90;;;;;;4911845;29;20032;-70
2021/12/07 05:06:19;;;;;;;15.27;2.28;;;5.00;99.90;;;;;;4913192;29;20036;-69
2021/12/07 05:08:53;;;;;;;18.88;2.22;;;5.00;99.90;;;;;;4913649;29;20032;-70
2021/12/07 05:23:54;;;;;;;20.50;2.45;;;5.20;99.90;;;;;;4908507;29;20065;-70
2021/12/07 05:38:26;;;;;;;16.67;2.00;;;5.40;99.90;;;;;;4914847;29;20076;-68
2021/12/07 05:40:52;;;;;;;19.98;1.95;;;5.50;99.90;;;;;;4907917;29;20036;-69
2021/12/07 05:43:17;;;;;;;17.70;2.30;;;5.50;99.90;;;;;;4921610;29;20043;-70
2021/12/07 05:45:44;;;;;;;13.10;2.00;;;5.50;99.90;;;;;;4914956;29;20051;-69
2021/12/07 05:48:10;;;;;;;19.70;1.85;;;5.50;99.90;;;;;;4915380;29;20510;-69
2021/12/07 05:50:37;;;;;;;20.00;2.20;;;5.60;99.90;;;;;;4909666;29;20123;-69
2021/12/07 05:53:04;;;;;;;26.88;2.25;;;5.60;99.90;;;;;;4912105;29;20036;-69
2021/12/07 05:55:31;;;;;;;10.52;1.98;;;5.50;99.90;;;;;;4927910;29;20028;-69
2021/12/07 05:57:57;;;;;;;18.75;1.90;;;5.60;99.90;;;;;;4909926;29;20028;-69
2021/12/07 06:00:27;;;;;;;;;;;5.60;99.90;;;;;;4914501;29;20036;-70
2021/12/07 06:02:54;;;;;;;;;;;5.70;99.90;;;;;;4913071;29;19946;-71
2021/12/07 06:05:21;;;;;;;;;;;5.70;99.90;;;;;;4920818;29;19911;-69
2021/12/07 06:07:46;;;;;;;;;;;5.90;99.90;;;;;;4910601;29;19911;-70
2021/12/07 06:10:12;;;;;;;;;;;5.90;99.90;;;;;;4910979;29;20392;-71
2021/12/07 06:12:37;;;;;;;;;;;5.90;99.90;;;;;;4908523;29;20400;-71
2021/12/07 06:15:03;;;;;;;;;;;6.00;99.90;;;;;;4913560;29;19926;-68
2021/12/07 06:17:28;;;;;;;;;;;6.10;99.90;;;;;;4912168;29;19949;-68
2021/12/07 06:19:54;;;;;;;;;;;6.10;99.90;;;;;;4908142;29;19919;-69
2021/12/07 06:22:20;;;;;;;;;;;6.10;99.90;;;;;;4924432;29;19952;-70
2021/12/07 06:24:45;;;;;;;;;;;6.20;99.90;;;;;;4911863;29;19930;-69
2021/12/07 06:27:11;;;;;;;;;;;6.20;99.90;;;;;;4904957;29;20009;-70
2021/12/07 06:29:37;;;;;;;;;;;6.20;99.90;;;;;;4910678;29;19987;-70
2021/12/07 06:32:03;;;;;;;;;;;6.30;99.90;;;;;;4910867;29;19980;-70
2021/12/07 06:34:31;;;;;;;;;;;6.40;99.90;;;;;;4907259;29;19911;-69
2021/12/07 06:36:56;;;;;;;;;;;6.40;99.90;;;;;;4914049;29;21183;-68
2021/12/07 06:39:22;;;;;;;;;;;6.30;99.90;;;;;;4913439;29;19914;-69
2021/12/07 06:41:48;;;;;;;;;;;6.20;99.90;;;;;;4913624;29;19960;-68
2021/12/07 06:44:14;;;;;;;;;;;6.30;99.90;;;;;;4906711;29;19910;-70
2021/12/07 06:46:39;;;;;;;;;;;6.20;99.90;;;;;;4912667;29;19911;-68
2021/12/07 06:49:05;;;;;;;;;;;6.20;99.90;;;;;;4914988;29;20273;-70
2021/12/07 06:51:30;;;;;;;;;;;6.20;99.90;;;;;;4912834;29;20514;-69
2021/12/07 06:53:56;;;;;;;;;;;6.20;99.90;;;;;;4906610;29;19982;-68
2021/12/07 06:56:22;;;;;;;;;;;6.30;99.90;;;;;;4910076;29;19919;-69
2021/12/07 06:58:47;;;;;;;;;;;6.30;99.90;;;;;;4911635;29;19911;-70
2021/12/07 07:01:14;;;;;;;;;;;6.40;99.90;;;;;;4908905;29;19958;-68
2021/12/07 07:03:39;;;;;;;;;;;6.50;99.90;;;;;;4909181;29;19919;-69
2021/12/07 07:06:05;;;;;;;;;;;6.50;99.90;;;;;;4911343;29;19911;-70
2021/12/07 07:08:32;;;;;;;;;;;6.50;99.90;;;;;;4910149;29;20358;-70
2021/12/07 07:10:57;;;;;;;;;;;6.60;99.90;;;;;;4910984;29;19918;-70
2021/12/07 07:13:23;;;;;;;;;;;6.60;99.90;;;;;;4906470;29;20015;-70
2021/12/07 07:15:49;;;;;;;;;;;6.60;99.90;;;;;;4906773;29;19951;-69
2021/12/07 07:18:14;;;;;;;;;;;6.60;99.90;;;;;;4912111;29;19911;-71
2021/12/07 07:20:40;;;;;;;;;;;6.60;99.90;;;;;;4910144;29;20446;-70
2021/12/07 07:23:06;;;;;;;;;;;6.60;99.90;;;;;;4903959;29;20002;-70
2021/12/07 07:25:32;;;;;;;;;;;6.50;99.90;;;;;;4911519;29;20286;-70
2021/12/07 07:27:58;;;;;;;;;;;6.50;99.90;;;;;;4916253;29;19923;-69
2021/12/07 07:30:23;;;;;;;;;;;6.60;99.90;;;;;;4918038;29;20370;-70
2021/12/07 07:32:50;;;;;;;;;;;6.60;99.90;;;;;;4908987;29;19911;-68
2021/12/07 07:35:16;;;;;;;;;;;6.60;99.90;;;;;;4908956;29;19946;-68
2021/12/07 07:37:42;;;;;;;;;;;6.70;99.90;;;;;;4910014;29;20310;-70
2021/12/07 07:40:09;;;;;;;;;;;6.80;99.90;;;;;;4911014;29;19918;-70
2021/12/07 07:42:34;;;;;;;;;;;6.90;99.90;;;;;;4911586;29;19926;-70
2021/12/07 07:45:00;;;;;;;;;;;6.90;99.90;;;;;;4911634;29;19918;-69
2021/12/07 07:47:26;;;;;;;;;;;7.00;99.90;;;;;;4907346;29;19937;-69
2021/12/07 07:49:51;;;;;;;;;;;7.00;99.90;;;;;;4916492;29;19921;-70
2021/12/07 07:52:17;;;;;;;;;;;7.10;99.90;;;;;;4914115;29;19997;-71
2021/12/07 07:54:43;;;;;;;;;;;7.10;99.90;;;;;;4914645;29;19922;-70
2021/12/07 07:57:08;;;;;;;;;;;7.10;99.90;;;;;;4920404;29;19974;-71
2021/12/07 07:59:36;;;;;;;;;;;7.10;99.90;;;;;;4909038;29;19925;-68
2021/12/07 08:02:02;;;;;;;;;;;7.20;99.90;;;;;;4911282;29;19911;-70
2021/12/07 08:04:28;;;;;;;;;;;7.20;99.90;;;;;;4915950;29;19911;-70
2021/12/07 08:06:54;;;;;;;;;;;7.30;99.90;;;;;;4910324;29;19919;-69
2021/12/07 08:09:19;;;;;;;;;;;7.30;99.90;;;;;;4907847;29;19911;-71
2021/12/07 08:11:45;;;;;;;;;;;7.40;99.90;;;;;;4913222;29;20330;-70
2021/12/07 08:14:10;;;;;;;;;;;7.30;99.90;;;;;;4914542;29;19965;-70
2021/12/07 08:16:36;;;;;;;;;;;7.20;99.90;;;;;;4916536;29;19915;-69
2021/12/07 08:19:02;;;;;;;;;;;7.20;99.90;;;;;;4913136;29;20046;-70
2021/12/07 08:21:28;;;;;;;;;;;7.20;99.90;;;;;;4916415;29;19923;-70
2021/12/07 08:23:53;;;;;;;;;;;7.10;99.90;;;;;;4915258;29;19911;-71
2021/12/07 08:26:20;;;;;;;;;;;7.20;99.90;;;;;;4915405;29;19919;-70
2021/12/07 08:28:46;;;;;;;;;;;7.20;99.90;;;;;;4914247;29;21167;-71
2021/12/07 08:31:12;;;;;;;;;;;7.30;99.90;;;;;;4914035;29;19926;-72
2021/12/07 08:33:37;;;;;;;;;;;7.20;99.90;;;;;;4916703;29;19911;-70
2021/12/07 08:36:04;;;;;;;;;;;7.30;99.90;;;;;;4912232;29;20439;-71
2021/12/07 08:38:30;;;;;;;;;;;7.40;99.90;;;;;;4906699;29;19934;-71
2021/12/07 08:40:56;;;;;;;;;;;7.40;99.90;;;;;;4915373;29;20372;-70
2021/12/07 08:43:23;;;;;;;;;;;7.50;99.90;;;;;;4907531;29;20502;-71
2021/12/07 08:45:49;;;;;;;;;;;7.60;99.90;;;;;;4910189;29;19911;-71
2021/12/07 08:48:14;;;;;;;;;;;7.50;99.90;;;;;;4911393;29;19998;-70
2021/12/07 08:50:41;;;;;;;;;;;7.60;99.90;;;;;;4899473;29;20333;-70
2021/12/07 08:53:07;;;;;;;;;;;7.60;99.90;;;;;;4906529;29;19911;-71
2021/12/07 09:01:04;;;;;;;;;;;7.70;99.90;;;;;;4914916;29;20026;-71
2021/12/07 09:03:29;;;;;;;;;;;7.70;99.90;;;;;;4927403;29;19918;-71
2021/12/07 09:05:55;;;;;;;;;;;7.70;99.90;;;;;;4918273;29;19906;-71
2021/12/07 09:08:20;;;;;;;;;;;7.80;99.90;;;;;;4903510;29;20370;-70
2021/12/07 09:10:46;;;;;;;;;;;7.80;99.90;;;;;;4910770;29;20022;-70
2021/12/07 09:13:12;;;;;;;;;;;7.90;99.90;;;;;;4914787;29;19921;-70
2021/12/07 09:15:38;;;;;;;;;;;7.90;99.90;;;;;;4908564;29;19910;-71
2021/12/07 09:18:04;;;;;;;;;;;7.90;99.90;;;;;;4910150;29;19915;-72
2021/12/07 09:20:29;;;;;;;;;;;7.90;99.90;;;;;;4916811;29;19907;-70
2021/12/07 09:22:55;;;;;;;;;;;7.90;99.90;;;;;;4912992;29;19911;-70
2021/12/07 09:25:21;;;;;;;;;;;8.10;99.90;;;;;;4915398;29;20175;-68
2021/12/07 09:27:47;;;;;;;;;;;8.10;99.90;;;;;;4916650;29;19915;-69
2021/12/07 09:30:14;;;;;;;;;;;8.10;99.90;;;;;;4914679;29;19919;-69
2021/12/07 09:32:39;;;;;;;;;;;8.10;99.90;;;;;;4906673;29;19911;-70
2021/12/07 09:35:07;;;;;;;;;;;8.10;99.90;;;;;;4913584;29;20013;-69
2021/12/07 09:37:33;;;;;;;;;;;8.00;99.90;;;;;;4915149;29;19967;-70
2021/12/07 09:39:59;;;;;;;;;;;7.90;99.90;;;;;;4916270;29;19914;-70
2021/12/07 09:42:24;;;;;;;;;;;7.90;99.90;;;;;;4914952;29;19914;-70
2021/12/07 09:44:50;;;;;;;;;;;7.90;99.90;;;;;;4915208;29;19911;-70
2021/12/07 09:47:15;;;;;;;;;;;7.90;99.90;;;;;;4913686;29;19919;-70
2021/12/07 09:49:41;;;;;;;;;;;7.90;99.90;;;;;;4912501;29;20581;-70
2021/12/07 09:52:07;;;;;;;;;;;7.90;99.90;;;;;;4908353;29;19974;-69
2021/12/07 09:54:32;;;;;;;;;;;7.90;99.90;;;;;;4908076;29;20538;-70
2021/12/07 09:56:58;;;;;;;;;;;7.90;99.90;;;;;;4910075;29;19926;-70
2021/12/07 09:59:23;;;;;;;;;;;7.90;99.90;;;;;;4907010;29;20280;-72
2021/12/07 10:01:49;;;;;;;;;;;7.90;99.90;;;;;;4908821;29;19919;-71
2021/12/07 10:04:16;;;;;;;;;;;8.00;99.90;;;;;;4915843;29;19911;-70
2021/12/07 10:06:42;;;;;;;;;;;8.00;99.90;;;;;;4908802;29;19911;-70
2021/12/07 10:09:08;;;;;;;;;;;8.00;99.90;;;;;;4917259;29;19918;-71
2021/12/07 10:11:34;;;;;;;;;;;8.10;99.90;;;;;;4914947;29;19911;-71
2021/12/07 10:14:00;;;;;;;;;;;8.20;99.90;;;;;;4909818;29;19912;-69
2021/12/07 10:16:25;;;;;;;;;;;8.20;99.90;;;;;;4913575;29;19918;-69
2021/12/07 10:18:51;;;;;;;;;;;8.20;99.90;;;;;;4912663;29;20531;-72
2021/12/07 10:21:21;;;;;;;;;;;8.20;99.90;;;;;;4910226;29;20413;-71
2021/12/07 10:23:53;;;;;;;;;;;8.20;99.90;;;;;;4899861;29;20361;-71
2021/12/07 10:26:23;;;;;;;;;;;8.20;99.90;;;;;;4917315;29;19930;-71
2021/12/07 10:28:57;;;;;;;;;;;8.30;99.90;;;;;;4899750;29;19954;-70
2021/12/07 10:31:25;;;;;;;;;;;8.30;99.90;;;;;;4912157;29;19959;-70
2021/12/07 10:33:53;;;;;;;;;;;8.40;99.90;;;;;;4915130;29;19911;-70
2021/12/07 10:36:19;;;;;;;;;;;8.40;99.90;;;;;;4912361;29;19911;-70
2021/12/07 10:38:57;;;;;;;;;;;8.40;99.90;;;;;;4914478;29;19911;-69
2021/12/07 10:41:24;;;;;;;;;;;8.50;99.90;;;;;;4910829;29;20258;-72
2021/12/07 10:43:50;;;;;;;;;;;8.60;99.90;;;;;;4903990;29;19908;-70
2021/12/07 10:46:33;;;;;;;;;;;8.70;99.90;;;;;;4913228;29;19911;-72
2021/12/07 10:49:07;;;;;;;;;;;8.70;99.90;;;;;;4916059;29;19911;-71
2021/12/07 10:51:33;;;;;;;;;;;8.90;99.90;;;;;;4903652;29;19923;-71
2021/12/07 10:53:58;;;;;;;;;;;8.90;99.90;;;;;;4908930;29;19994;-71
2021/12/07 10:56:35;;;;;;;;;;;8.90;99.90;;;;;;4910785;29;19917;-71
2021/12/07 10:59:10;;;;;;;;;;;8.90;99.90;;;;;;4911082;29;20199;-70
2021/12/07 11:01:37;;;;;;;;;;;8.90;99.90;;;;;;4908154;29;19950;-71
2021/12/07 11:04:26;;;;;;;;;;;8.90;99.90;;;;;;4914569;29;19961;-72
2021/12/07 11:07:12;;;;;;;;;;;8.90;99.90;;;;;;4907587;29;19911;-71
2021/12/07 11:09:39;;;;;;;;;;;8.90;99.90;;;;;;4902783;29;19967;-71
2021/12/07 11:12:08;;;;;;;;;;;8.90;99.90;;;;;;4913025;29;19918;-71
2021/12/07 11:14:53;;;;;;;;;;;8.90;99.90;;;;;;4914906;29;19911;-70
2021/12/07 11:17:30;;;;;;;;;;;8.90;99.90;;;;;;4912941;29;19919;-72
2021/12/07 11:19:57;;;;;;;;;;;9.00;99.90;;;;;;4906095;29;19911;-71
2021/12/07 11:22:24;;;;;;;;;;;9.00;99.90;;;;;;4912683;29;19911;-71
2021/12/07 11:24:52;;;;;;;;;;;9.00;99.90;;;;;;4917695;29;19953;-71
2021/12/07 11:30:08;;;;;;;;;;;9.00;99.90;;;;;;4912980;29;20278;-69
2021/12/07 11:32:34;;;;;;;;;;;9.00;99.90;;;;;;4915063;29;19946;-71
2021/12/07 11:35:09;;;;;;;;;;;9.10;99.90;;;;;;4917958;29;19911;-70
2021/12/07 11:37:36;;;;;;;;;;;9.00;99.90;;;;;;4913957;29;20301;-71
2021/12/07 11:40:04;;;;;;;;;;;9.00;99.90;;;;;;4912065;29;19966;-70
2021/12/07 11:42:30;;;;;;;;;;;9.00;99.90;;;;;;4920985;29;19910;-70
2021/12/07 11:45:03;;;;;;;;;;;9.00;99.90;;;;;;4918501;29;20005;-71
2021/12/07 11:47:30;;;;;;;;;;;9.00;99.90;;;;;;4917355;29;20378;-70
2021/12/07 11:49:57;;;;;;;;;;;9.10;99.90;;;;;;4915212;29;20062;-71
2021/12/07 11:52:23;;;;;;;;;;;9.10;99.90;;;;;;4911398;29;19912;-70
2021/12/07 11:54:49;;;;;;;;;;;9.10;99.90;;;;;;4916410;29;19996;-71
2021/12/07 11:57:16;;;;;;;;;;;9.10;99.90;;;;;;4922736;29;19961;-70
2021/12/07 11:59:42;;;;;;;;;;;9.10;99.90;;;;;;4921145;29;20373;-70
2021/12/07 12:02:07;;;;;;;;;;;9.10;99.90;;;;;;4917445;29;20260;-70
2021/12/07 12:04:33;;;;;;;;;;;9.20;99.90;;;;;;4917371;29;19946;-71
2021/12/07 12:07:00;;;;;;;;;;;9.30;99.90;;;;;;4912639;29;19954;-71
2021/12/07 12:09:26;;;;;;;;;;;9.30;99.90;;;;;;4912913;29;19911;-70
2021/12/07 12:12:01;;;;;;;;;;;9.40;99.90;;;;;;4921108;29;19934;-71
2021/12/07 12:14:36;;;;;;;;;;;9.40;99.90;;;;;;4927733;29;20384;-71
2021/12/07 12:17:08;;;;;;;;;;;9.40;99.90;;;;;;4906315;29;19918;-71
2021/12/07 12:19:49;;;;;;;;;;;9.30;99.90;;;;;;4913613;29;19918;-71
2021/12/07 12:22:16;;;;;;;;;;;9.30;99.90;;;;;;4909287;29;20092;-71
2021/12/07 12:24:45;;;;;;;;;;;9.30;99.90;;;;;;4916131;29;19911;-72
2021/12/07 12:27:11;;;;;;;;;;;9.30;99.90;;;;;;4920529;29;20046;-72
2021/12/07 12:29:38;;;;;;;;;;;9.40;99.90;;;;;;4915700;29;19958;-72
2021/12/07 12:32:04;;;;;;;;;;;9.40;99.90;;;;;;4912723;29;19911;-71
2021/12/07 12:34:31;;;;;;;;;;;9.30;99.90;;;;;;4917667;29;20273;-72
2021/12/07 12:36:59;;;;;;;;;;;9.30;99.90;;;;;;4922462;29;19911;-72
2021/12/07 12:39:41;;;;;;;;;;;9.30;99.90;;;;;;4916535;29;19911;-72
2021/12/07 12:42:07;;;;;;;;;;;9.30;99.90;;;;;;4916623;29;19912;-71
2021/12/07 12:44:34;;;;;;;;;;;9.30;99.90;;;;;;4905908;29;19911;-71
2021/12/07 12:46:59;;;;;;;;;;;9.30;99.90;;;;;;4923754;29;19950;-71
2021/12/07 12:49:35;;;;;;;;;;;9.30;99.90;;;;;;4921617;29;19911;-70
2021/12/07 12:52:01;;;;;;;;;;;9.30;99.90;;;;;;4919811;29;19919;-69
2021/12/07 12:54:36;;;;;;;;;;;9.30;99.90;;;;;;4917168;29;20235;-70
2021/12/07 12:57:13;;;;;;;;;;;9.30;99.90;;;;;;4916850;29;19911;-71
2021/12/07 12:59:41;;;;;;;;;;;9.30;99.90;;;;;;4918132;29;19917;-72
2021/12/07 13:02:07;;;;;;;;;;;9.30;99.90;;;;;;4919364;29;19911;-71
2021/12/07 13:04:34;;;;;;;;;;;9.30;99.90;;;;;;4910130;29;19958;-72
2021/12/07 13:09:44;;;;;;;;;;;9.30;99.90;;;;;;4913910;29;19926;-71
2021/12/07 13:12:09;;;;;;;;;;;9.30;99.90;;;;;;4911217;29;19919;-72
2021/12/07 13:14:35;;;;;;;;;;;9.40;99.90;;;;;;4915094;29;19912;-71
2021/12/07 13:17:08;;;;;;;;;;;8.90;99.90;;;;;;4908404;29;20362;-73
2021/12/07 13:19:52;;;;;;;;;;;8.40;99.90;;;;;;4910790;29;19911;-71
2021/12/07 13:22:19;;;;;;;;;;;8.40;99.90;;;;;;4921870;29;19958;-73
2021/12/07 13:24:46;;;;;;;;;;;8.40;99.90;;;;;;4922911;29;19911;-71
2021/12/07 13:27:15;;;;;;;;;;;8.50;99.90;;;;;;4926179;29;19942;-72
2021/12/07 13:29:45;;;;;;;;;;;8.60;99.90;;;;;;4925996;29;19923;-72
2021/12/07 13:32:11;;;;;;;;;;;8.60;99.90;;;;;;4905714;29;19917;-73
2021/12/07 13:34:37;;;;;;;;;;;8.70;99.90;;;;;;4922653;29;20369;-73
2021/12/07 13:37:03;;;;;;;;;;;8.70;99.90;;;;;;4923027;29;19907;-72
2021/12/07 13:39:31;;;;;;;;;;;8.70;99.90;;;;;;4923295;29;19911;-71
2021/12/07 13:42:20;;;;;;;;;;;8.90;99.90;;;;;;4918140;29;19907;-72
2021/12/07 13:44:46;;;;;;;;;;;9.00;99.90;;;;;;4917325;29;19919;-72
2021/12/07 13:47:13;;;;;;;;;;;9.00;99.90;;;;;;4915188;29;19946;-71
2021/12/07 13:49:41;;;;;;;;;;;9.10;99.90;;;;;;4917384;29;19923;-72
2021/12/07 13:52:11;;;;;;;;;;;9.10;99.90;;;;;;4906156;29;19914;-71
2021/12/07 13:54:44;;;;;;;;;;;9.10;99.90;;;;;;4914644;29;19923;-73
2021/12/07 13:57:14;;;;;;;;;;;9.00;99.90;;;;;;4914471;29;19946;-73
2021/12/07 13:59:40;;;;;;;;;;;9.10;99.90;;;;;;4914141;29;19907;-72
2021/12/07 14:02:06;;;;;;;;;;;9.10;99.90;;;;;;4913336;29;20486;-73
2021/12/07 14:04:31;;;;;;;;;;;9.10;99.90;;;;;;4896784;29;19912;-73
2021/12/07 14:06:57;;;;;;;;;;;9.10;99.90;;;;;;4911229;29;19907;-72
2021/12/07 14:09:23;;;;;;;;;;;9.20;99.90;;;;;;4915036;29;19914;-72
2021/12/07 14:11:55;;;;;;;;;;;9.30;99.90;;;;;;4911758;29;19922;-73
2021/12/07 14:14:21;;;;;;;;;;;9.30;99.90;;;;;;4927612;29;20002;-72
2021/12/07 14:16:47;;;;;;;;;;;9.30;99.90;;;;;;4909864;29;19948;-71
2021/12/07 14:19:13;;;;;;;;;;;9.30;99.90;;;;;;4916628;29;19962;-70
2021/12/07 14:21:39;;;;;;;;;;;9.40;99.90;;;;;;4911901;29;19907;-72
2021/12/07 14:24:08;;;;;;;;;;;9.40;99.90;;;;;;4911218;29;19915;-72
2021/12/07 14:26:36;;;;;;;;;;;9.40;99.90;;;;;;4906010;29;19907;-73
2021/12/07 14:29:04;;;;;;;;;;;9.30;99.90;;;;;;4909688;29;19911;-70
2021/12/07 14:31:33;;;;;;;;;;;9.30;99.90;;;;;;4911716;29;20168;-72
2021/12/07 14:34:02;;;;;;;;;;;9.20;99.90;;;;;;4910676;29;20433;-71
2021/12/07 14:36:32;;;;;;;;;;;9.30;99.90;;;;;;4903184;29;19954;-72
2021/12/07 14:39:00;;;;;;;;;;;9.30;99.90;;;;;;4903696;29;19976;-71
2021/12/07 14:41:26;;;;;;;;;;;9.30;99.90;;;;;;4913030;29;20358;-72
2021/12/07 14:43:52;;;;;;;;;;;9.30;99.90;;;;;;4914070;29;19986;-71
2021/12/07 14:46:19;;;;;;;;;;;9.30;99.90;;;;;;4908891;29;19917;-71
2021/12/07 14:48:47;;;;;;;;;;;9.40;99.90;;;;;;4919897;29;19915;-71
2021/12/07 14:51:17;;;;;;;;;;;9.40;99.90;;;;;;4919887;29;19929;-71
2021/12/07 14:53:48;;;;;;;;;;;9.40;99.90;;;;;;4921029;29;19922;-72
2021/12/07 14:56:15;;;;;;;;;;;9.40;99.90;;;;;;4917189;29;19911;-72
2021/12/07 14:58:41;;;;;;;;;;;9.40;99.90;;;;;;4913582;29;20310;-71
2021/12/07 15:01:08;;;;;;;;;;;9.40;99.90;;;;;;4925626;29;20428;-71
2021/12/07 15:03:39;;;;;;;;;;;9.40;99.90;;;;;;4917373;29;19923;-72
2021/12/07 15:06:05;;;;;;;;;;;9.30;99.90;;;;;;4918210;29;19918;-72
2021/12/07 15:08:31;;;;;;;;;;;9.20;99.90;;;;;;4914033;29;19911;-71
2021/12/07 15:10:58;;;;;;;;;;;9.10;99.90;;;;;;4918012;29;19926;-72
2021/12/07 15:13:24;;;;;;;;;;;9.10;99.90;;;;;;4919503;29;19959;-71
2021/12/07 15:15:51;;;;;;;;;;;9.20;99.90;;;;;;4925053;29;19919;-71
2021/12/07 15:18:16;;;;;;;;;;;9.30;99.90;;;;;;4913617;29;20368;-72
2021/12/07 15:20:45;;;;;;;;;;;9.30;99.90;;;;;;4914535;29;19917;-72
2021/12/07 15:23:11;;;;;;;;;;;9.30;99.90;;;;;;4917791;29;19918;-72
2021/12/07 15:25:38;;;;;;;;;;;9.30;99.90;;;;;;4914654;29;19917;-72
2021/12/07 15:28:04;;;;;;;;;;;9.30;99.90;;;;;;4922849;29;19911;-70
2021/12/07 15:30:29;;;;;;;;;;;9.30;99.90;;;;;;4919637;29;19974;-70
2021/12/07 15:32:55;;;;;;;;;;;9.20;99.90;;;;;;4914730;29;19911;-73
2021/12/07 15:35:25;;;;;;;;;;;9.00;99.90;;;;;;4918060;29;19957;-71
2021/12/07 15:37:50;;;;;;;;;;;9.00;99.90;;;;;;4909755;29;20334;-71
2021/12/07 15:40:20;;;;;;;;;;;8.90;99.90;;;;;;4913655;29;19938;-72
2021/12/07 15:42:45;;;;;;;;;;;9.00;99.90;;;;;;4924637;29;19921;-71
2021/12/07 15:45:13;;;;;;;;;;;8.80;99.90;;;;;;4915205;29;20252;-71
2021/12/07 15:47:40;;;;;;;;;;;8.80;99.90;;;;;;4922578;29;20009;-71